sensor_id;sensor_type;location;lat;lon;timestamp;P1;durP1;ratioP1;P2;durP2;ratioP2
69161;SDS011;56269;51.738;21.652;2023-03-29T00:01:59;3.13;;;1.10;;
69161;SDS011;56269;51.738;21.652;2023-03-29T00:04:25;4.43;;;1.40;;
69161;SDS011;56269;51.738;21.652;2023-03-29T00:06:53;3.15;;;1.02;;
69161;SDS011;56269;51.738;21.652;2023-03-29T00:09:19;2.20;;;0.70;;
69161;SDS011;56269;51.738;21.652;2023-03-29T00:11:46;4.28;;;1.30;;
69161;SDS011;56269;51.738;21.652;2023-03-29T00:14:12;3.47;;;1.23;;
69161;SDS011;56269;51.738;21.652;2023-03-29T00:16:39;2.42;;;0.90;;
69161;SDS011;56269;51.738;21.652;2023-03-29T00:19:05;3.00;;;1.00;;
69161;SDS011;56269;51.738;21.652;2023-03-29T00:21:32;3.55;;;1.15;;
69161;SDS011;56269;51.738;21.652;2023-03-29T00:23:58;2.92;;;1.23;;
69161;SDS011;56269;51.738;21.652;2023-03-29T00:26:24;4.80;;;1.40;;
69161;SDS011;56269;51.738;21.652;2023-03-29T00:28:51;4.13;;;1.40;;
69161;SDS011;56269;51.738;21.652;2023-03-29T00:31:17;6.35;;;1.70;;
69161;SDS011;56269;51.738;21.652;2023-03-29T00:33:44;7.35;;;1.73;;
69161;SDS011;56269;51.738;21.652;2023-03-29T00:36:11;4.93;;;1.63;;
69161;SDS011;56269;51.738;21.652;2023-03-29T00:38:38;3.43;;;1.37;;
69161;SDS011;56269;51.738;21.652;2023-03-29T00:41:05;2.97;;;1.10;;
69161;SDS011;56269;51.738;21.652;2023-03-29T00:46:56;5.88;;;1.90;;
69161;SDS011;56269;51.738;21.652;2023-03-29T00:49:22;4.13;;;1.50;;
69161;SDS011;56269;51.738;21.652;2023-03-29T00:51:49;3.60;;;1.27;;
69161;SDS011;56269;51.738;21.652;2023-03-29T00:54:15;3.17;;;1.02;;
69161;SDS011;56269;51.738;21.652;2023-03-29T00:56:45;2.58;;;1.13;;
69161;SDS011;56269;51.738;21.652;2023-03-29T00:59:16;4.00;;;1.33;;
69161;SDS011;56269;51.738;21.652;2023-03-29T01:01:53;2.70;;;0.75;;
69161;SDS011;56269;51.738;21.652;2023-03-29T01:04:34;3.27;;;1.10;;
69161;SDS011;56269;51.738;21.652;2023-03-29T01:07:11;1.30;;;0.70;;
69161;SDS011;56269;51.738;21.652;2023-03-29T01:09:59;3.72;;;1.42;;
69161;SDS011;56269;51.738;21.652;2023-03-29T01:12:36;2.78;;;1.00;;
69161;SDS011;56269;51.738;21.652;2023-03-29T01:17:53;3.97;;;1.07;;
69161;SDS011;56269;51.738;21.652;2023-03-29T01:20:25;3.20;;;1.13;;
69161;SDS011;56269;51.738;21.652;2023-03-29T01:23:31;3.50;;;0.82;;
69161;SDS011;56269;51.738;21.652;2023-03-29T01:29:05;3.17;;;0.88;;
69161;SDS011;56269;51.738;21.652;2023-03-29T01:31:38;2.13;;;0.90;;
69161;SDS011;56269;51.738;21.652;2023-03-29T01:34:16;6.40;;;1.50;;
69161;SDS011;56269;51.738;21.652;2023-03-29T01:39:36;4.35;;;1.50;;
69161;SDS011;56269;51.738;21.652;2023-03-29T01:42:12;5.57;;;1.55;;
69161;SDS011;56269;51.738;21.652;2023-03-29T01:50:08;4.43;;;1.35;;
69161;SDS011;56269;51.738;21.652;2023-03-29T01:53:06;2.47;;;1.17;;
69161;SDS011;56269;51.738;21.652;2023-03-29T01:55:43;5.30;;;1.80;;
69161;SDS011;56269;51.738;21.652;2023-03-29T01:58:15;4.70;;;1.07;;
69161;SDS011;56269;51.738;21.652;2023-03-29T02:00:43;3.08;;;1.63;;
69161;SDS011;56269;51.738;21.652;2023-03-29T02:03:10;4.22;;;1.40;;
69161;SDS011;56269;51.738;21.652;2023-03-29T02:05:39;3.30;;;1.10;;
69161;SDS011;56269;51.738;21.652;2023-03-29T02:08:07;3.03;;;1.13;;
69161;SDS011;56269;51.738;21.652;2023-03-29T02:10:36;3.37;;;1.33;;
69161;SDS011;56269;51.738;21.652;2023-03-29T02:13:03;3.53;;;1.30;;
69161;SDS011;56269;51.738;21.652;2023-03-29T02:15:30;4.07;;;1.48;;
69161;SDS011;56269;51.738;21.652;2023-03-29T02:17:56;2.15;;;1.00;;
69161;SDS011;56269;51.738;21.652;2023-03-29T02:23:08;3.80;;;1.70;;
69161;SDS011;56269;51.738;21.652;2023-03-29T02:25:43;4.60;;;1.15;;
69161;SDS011;56269;51.738;21.652;2023-03-29T02:28:11;2.75;;;1.40;;
69161;SDS011;56269;51.738;21.652;2023-03-29T02:33:13;3.40;;;1.40;;
69161;SDS011;56269;51.738;21.652;2023-03-29T02:35:45;4.67;;;1.40;;
69161;SDS011;56269;51.738;21.652;2023-03-29T02:38:19;4.45;;;1.45;;
69161;SDS011;56269;51.738;21.652;2023-03-29T02:40:46;2.88;;;0.93;;
69161;SDS011;56269;51.738;21.652;2023-03-29T02:43:13;4.35;;;1.60;;
69161;SDS011;56269;51.738;21.652;2023-03-29T02:45:41;5.07;;;1.63;;
69161;SDS011;56269;51.738;21.652;2023-03-29T02:48:10;5.03;;;1.47;;
69161;SDS011;56269;51.738;21.652;2023-03-29T02:50:42;4.70;;;1.45;;
69161;SDS011;56269;51.738;21.652;2023-03-29T02:53:12;4.13;;;1.48;;
69161;SDS011;56269;51.738;21.652;2023-03-29T02:55:42;3.75;;;1.60;;
69161;SDS011;56269;51.738;21.652;2023-03-29T02:58:10;4.25;;;1.48;;
69161;SDS011;56269;51.738;21.652;2023-03-29T03:00:39;8.03;;;2.60;;
69161;SDS011;56269;51.738;21.652;2023-03-29T03:03:09;4.35;;;1.60;;
69161;SDS011;56269;51.738;21.652;2023-03-29T03:05:37;4.80;;;1.55;;
69161;SDS011;56269;51.738;21.652;2023-03-29T03:08:03;6.35;;;1.67;;
69161;SDS011;56269;51.738;21.652;2023-03-29T03:10:35;3.20;;;1.20;;
69161;SDS011;56269;51.738;21.652;2023-03-29T03:13:02;2.87;;;1.17;;
69161;SDS011;56269;51.738;21.652;2023-03-29T03:15:32;2.83;;;1.10;;
69161;SDS011;56269;51.738;21.652;2023-03-29T03:18:02;5.15;;;1.52;;
69161;SDS011;56269;51.738;21.652;2023-03-29T03:20:29;2.42;;;0.82;;
69161;SDS011;56269;51.738;21.652;2023-03-29T03:22:55;4.40;;;1.48;;
69161;SDS011;56269;51.738;21.652;2023-03-29T03:25:22;3.67;;;1.50;;
69161;SDS011;56269;51.738;21.652;2023-03-29T03:27:49;3.95;;;1.88;;
69161;SDS011;56269;51.738;21.652;2023-03-29T03:30:16;4.07;;;1.83;;
69161;SDS011;56269;51.738;21.652;2023-03-29T03:32:43;5.25;;;1.80;;
69161;SDS011;56269;51.738;21.652;2023-03-29T03:35:09;4.00;;;1.27;;
69161;SDS011;56269;51.738;21.652;2023-03-29T03:37:36;3.30;;;1.20;;
69161;SDS011;56269;51.738;21.652;2023-03-29T03:40:04;2.75;;;1.42;;
69161;SDS011;56269;51.738;21.652;2023-03-29T03:42:31;2.53;;;0.90;;
69161;SDS011;56269;51.738;21.652;2023-03-29T03:44:57;6.13;;;1.70;;
69161;SDS011;56269;51.738;21.652;2023-03-29T03:47:24;10.93;;;1.90;;
69161;SDS011;56269;51.738;21.652;2023-03-29T03:49:50;4.70;;;1.47;;
69161;SDS011;56269;51.738;21.652;2023-03-29T03:52:17;1.77;;;0.90;;
69161;SDS011;56269;51.738;21.652;2023-03-29T03:54:44;7.25;;;1.55;;
69161;SDS011;56269;51.738;21.652;2023-03-29T03:57:11;4.70;;;1.67;;
69161;SDS011;56269;51.738;21.652;2023-03-29T03:59:38;6.40;;;1.13;;
69161;SDS011;56269;51.738;21.652;2023-03-29T04:02:04;3.33;;;1.50;;
69161;SDS011;56269;51.738;21.652;2023-03-29T04:04:31;3.45;;;1.23;;
69161;SDS011;56269;51.738;21.652;2023-03-29T04:06:57;3.80;;;1.73;;
69161;SDS011;56269;51.738;21.652;2023-03-29T04:09:31;6.47;;;1.55;;
69161;SDS011;56269;51.738;21.652;2023-03-29T04:11:58;5.47;;;1.17;;
69161;SDS011;56269;51.738;21.652;2023-03-29T04:14:26;5.37;;;1.27;;
69161;SDS011;56269;51.738;21.652;2023-03-29T04:16:53;4.72;;;1.42;;
69161;SDS011;56269;51.738;21.652;2023-03-29T04:19:20;5.63;;;2.97;;
69161;SDS011;56269;51.738;21.652;2023-03-29T04:21:46;3.42;;;1.35;;
69161;SDS011;56269;51.738;21.652;2023-03-29T04:24:15;4.40;;;1.50;;
69161;SDS011;56269;51.738;21.652;2023-03-29T04:26:42;5.77;;;1.50;;
69161;SDS011;56269;51.738;21.652;2023-03-29T04:29:09;7.68;;;2.03;;
69161;SDS011;56269;51.738;21.652;2023-03-29T04:31:35;5.07;;;2.05;;
69161;SDS011;56269;51.738;21.652;2023-03-29T04:34:02;6.85;;;1.52;;
69161;SDS011;56269;51.738;21.652;2023-03-29T04:36:28;7.43;;;1.98;;
69161;SDS011;56269;51.738;21.652;2023-03-29T04:38:54;6.13;;;2.20;;
69161;SDS011;56269;51.738;21.652;2023-03-29T04:41:20;6.93;;;2.30;;
69161;SDS011;56269;51.738;21.652;2023-03-29T04:43:47;6.18;;;2.00;;
69161;SDS011;56269;51.738;21.652;2023-03-29T04:46:13;9.18;;;2.88;;
69161;SDS011;56269;51.738;21.652;2023-03-29T04:48:40;2.95;;;1.42;;
69161;SDS011;56269;51.738;21.652;2023-03-29T04:51:07;6.47;;;1.87;;
69161;SDS011;56269;51.738;21.652;2023-03-29T04:53:33;5.88;;;2.10;;
69161;SDS011;56269;51.738;21.652;2023-03-29T04:55:59;4.22;;;1.67;;
69161;SDS011;56269;51.738;21.652;2023-03-29T04:58:26;8.98;;;2.70;;
69161;SDS011;56269;51.738;21.652;2023-03-29T05:00:56;7.05;;;2.47;;
69161;SDS011;56269;51.738;21.652;2023-03-29T05:03:25;4.20;;;1.27;;
69161;SDS011;56269;51.738;21.652;2023-03-29T05:05:52;6.40;;;1.60;;
69161;SDS011;56269;51.738;21.652;2023-03-29T05:08:18;7.53;;;2.75;;
69161;SDS011;56269;51.738;21.652;2023-03-29T05:10:45;6.57;;;2.25;;
69161;SDS011;56269;51.738;21.652;2023-03-29T05:13:12;6.70;;;2.30;;
69161;SDS011;56269;51.738;21.652;2023-03-29T05:15:38;6.77;;;2.13;;
69161;SDS011;56269;51.738;21.652;2023-03-29T05:18:05;4.60;;;1.80;;
69161;SDS011;56269;51.738;21.652;2023-03-29T05:20:31;6.93;;;2.33;;
69161;SDS011;56269;51.738;21.652;2023-03-29T05:22:57;6.13;;;2.35;;
69161;SDS011;56269;51.738;21.652;2023-03-29T05:25:24;8.38;;;2.40;;
69161;SDS011;56269;51.738;21.652;2023-03-29T05:27:51;4.07;;;1.30;;
69161;SDS011;56269;51.738;21.652;2023-03-29T05:30:17;4.68;;;1.48;;
69161;SDS011;56269;51.738;21.652;2023-03-29T05:32:44;4.03;;;1.70;;
69161;SDS011;56269;51.738;21.652;2023-03-29T05:35:11;7.28;;;2.80;;
69161;SDS011;56269;51.738;21.652;2023-03-29T05:37:37;4.68;;;1.83;;
69161;SDS011;56269;51.738;21.652;2023-03-29T05:40:04;9.67;;;3.00;;
69161;SDS011;56269;51.738;21.652;2023-03-29T05:42:33;5.90;;;2.25;;
69161;SDS011;56269;51.738;21.652;2023-03-29T05:44:59;7.90;;;2.72;;
69161;SDS011;56269;51.738;21.652;2023-03-29T05:47:26;8.57;;;2.83;;
69161;SDS011;56269;51.738;21.652;2023-03-29T05:49:52;5.20;;;2.00;;
69161;SDS011;56269;51.738;21.652;2023-03-29T05:52:19;17.17;;;4.93;;
69161;SDS011;56269;51.738;21.652;2023-03-29T05:54:45;15.80;;;4.15;;
69161;SDS011;56269;51.738;21.652;2023-03-29T05:57:12;6.55;;;2.50;;
69161;SDS011;56269;51.738;21.652;2023-03-29T05:59:38;13.00;;;4.78;;
69161;SDS011;56269;51.738;21.652;2023-03-29T06:02:04;14.63;;;4.13;;
69161;SDS011;56269;51.738;21.652;2023-03-29T06:04:32;9.17;;;3.47;;
69161;SDS011;56269;51.738;21.652;2023-03-29T06:07:01;10.30;;;3.60;;
69161;SDS011;56269;51.738;21.652;2023-03-29T06:09:30;6.45;;;2.20;;
69161;SDS011;56269;51.738;21.652;2023-03-29T06:11:57;9.50;;;3.50;;
69161;SDS011;56269;51.738;21.652;2023-03-29T06:14:25;10.23;;;3.13;;
69161;SDS011;56269;51.738;21.652;2023-03-29T06:16:52;7.10;;;2.67;;
69161;SDS011;56269;51.738;21.652;2023-03-29T06:19:19;6.47;;;2.13;;
69161;SDS011;56269;51.738;21.652;2023-03-29T06:21:46;6.18;;;2.88;;
69161;SDS011;56269;51.738;21.652;2023-03-29T06:24:12;12.93;;;4.13;;
69161;SDS011;56269;51.738;21.652;2023-03-29T06:26:39;8.75;;;2.58;;
69161;SDS011;56269;51.738;21.652;2023-03-29T06:29:06;9.37;;;3.27;;
69161;SDS011;56269;51.738;21.652;2023-03-29T06:31:33;10.68;;;3.05;;
69161;SDS011;56269;51.738;21.652;2023-03-29T06:34:00;5.72;;;1.83;;
69161;SDS011;56269;51.738;21.652;2023-03-29T06:36:29;4.03;;;1.52;;
69161;SDS011;56269;51.738;21.652;2023-03-29T06:38:58;7.32;;;2.28;;
69161;SDS011;56269;51.738;21.652;2023-03-29T06:41:25;7.63;;;2.50;;
69161;SDS011;56269;51.738;21.652;2023-03-29T06:43:51;6.47;;;1.92;;
69161;SDS011;56269;51.738;21.652;2023-03-29T06:46:18;11.85;;;4.03;;
69161;SDS011;56269;51.738;21.652;2023-03-29T06:48:44;9.35;;;3.45;;
69161;SDS011;56269;51.738;21.652;2023-03-29T06:51:12;6.75;;;2.22;;
69161;SDS011;56269;51.738;21.652;2023-03-29T06:53:38;9.10;;;2.83;;
69161;SDS011;56269;51.738;21.652;2023-03-29T06:56:04;6.20;;;2.05;;
69161;SDS011;56269;51.738;21.652;2023-03-29T06:58:33;6.20;;;2.10;;
69161;SDS011;56269;51.738;21.652;2023-03-29T07:01:00;7.25;;;2.33;;
69161;SDS011;56269;51.738;21.652;2023-03-29T07:03:28;8.05;;;2.70;;
69161;SDS011;56269;51.738;21.652;2023-03-29T07:06:04;5.97;;;2.30;;
69161;SDS011;56269;51.738;21.652;2023-03-29T07:08:35;6.78;;;2.22;;
69161;SDS011;56269;51.738;21.652;2023-03-29T07:11:09;7.32;;;2.10;;
69161;SDS011;56269;51.738;21.652;2023-03-29T07:13:38;8.65;;;2.35;;
69161;SDS011;56269;51.738;21.652;2023-03-29T07:16:23;8.68;;;2.20;;
69161;SDS011;56269;51.738;21.652;2023-03-29T07:18:59;6.30;;;1.87;;
69161;SDS011;56269;51.738;21.652;2023-03-29T07:22:02;8.38;;;2.38;;
69161;SDS011;56269;51.738;21.652;2023-03-29T07:24:28;5.22;;;1.45;;
69161;SDS011;56269;51.738;21.652;2023-03-29T07:27:01;10.68;;;3.15;;
69161;SDS011;56269;51.738;21.652;2023-03-29T07:29:29;7.72;;;2.05;;
69161;SDS011;56269;51.738;21.652;2023-03-29T07:31:56;5.23;;;2.20;;
69161;SDS011;56269;51.738;21.652;2023-03-29T07:34:28;6.80;;;2.25;;
69161;SDS011;56269;51.738;21.652;2023-03-29T07:37:22;5.85;;;2.03;;
69161;SDS011;56269;51.738;21.652;2023-03-29T07:39:49;7.40;;;2.28;;
69161;SDS011;56269;51.738;21.652;2023-03-29T07:42:17;6.03;;;1.75;;
69161;SDS011;56269;51.738;21.652;2023-03-29T07:44:46;4.60;;;1.60;;
69161;SDS011;56269;51.738;21.652;2023-03-29T07:47:29;5.10;;;2.03;;
69161;SDS011;56269;51.738;21.652;2023-03-29T07:49:59;5.80;;;2.13;;
69161;SDS011;56269;51.738;21.652;2023-03-29T07:52:26;7.28;;;2.22;;
69161;SDS011;56269;51.738;21.652;2023-03-29T07:54:57;11.60;;;2.13;;
69161;SDS011;56269;51.738;21.652;2023-03-29T07:57:27;6.50;;;2.00;;
69161;SDS011;56269;51.738;21.652;2023-03-29T07:59:59;6.45;;;1.60;;
69161;SDS011;56269;51.738;21.652;2023-03-29T08:02:48;4.80;;;1.77;;
69161;SDS011;56269;51.738;21.652;2023-03-29T08:05:20;6.97;;;1.70;;
69161;SDS011;56269;51.738;21.652;2023-03-29T08:07:48;7.60;;;2.30;;
69161;SDS011;56269;51.738;21.652;2023-03-29T08:10:16;9.43;;;2.07;;
69161;SDS011;56269;51.738;21.652;2023-03-29T08:13:20;5.95;;;1.80;;
69161;SDS011;56269;51.738;21.652;2023-03-29T08:15:54;5.63;;;1.90;;
69161;SDS011;56269;51.738;21.652;2023-03-29T08:18:24;4.88;;;1.80;;
69161;SDS011;56269;51.738;21.652;2023-03-29T08:20:53;6.80;;;2.03;;
69161;SDS011;56269;51.738;21.652;2023-03-29T08:23:20;6.13;;;1.93;;
69161;SDS011;56269;51.738;21.652;2023-03-29T08:25:46;4.13;;;1.50;;
69161;SDS011;56269;51.738;21.652;2023-03-29T08:28:12;5.38;;;1.83;;
69161;SDS011;56269;51.738;21.652;2023-03-29T08:30:38;6.75;;;1.70;;
69161;SDS011;56269;51.738;21.652;2023-03-29T08:33:15;6.10;;;1.75;;
69161;SDS011;56269;51.738;21.652;2023-03-29T08:35:44;5.30;;;1.57;;
69161;SDS011;56269;51.738;21.652;2023-03-29T08:38:11;4.55;;;1.40;;
69161;SDS011;56269;51.738;21.652;2023-03-29T08:40:37;5.07;;;1.58;;
69161;SDS011;56269;51.738;21.652;2023-03-29T08:48:45;3.50;;;1.20;;
69161;SDS011;56269;51.738;21.652;2023-03-29T08:51:26;5.53;;;1.70;;
69161;SDS011;56269;51.738;21.652;2023-03-29T08:53:59;5.53;;;1.90;;
69161;SDS011;56269;51.738;21.652;2023-03-29T08:56:29;4.80;;;1.35;;
69161;SDS011;56269;51.738;21.652;2023-03-29T08:58:59;5.50;;;1.98;;
69161;SDS011;56269;51.738;21.652;2023-03-29T09:01:27;4.67;;;1.40;;
69161;SDS011;56269;51.738;21.652;2023-03-29T09:04:03;5.03;;;1.63;;
69161;SDS011;56269;51.738;21.652;2023-03-29T09:06:33;4.28;;;1.40;;
69161;SDS011;56269;51.738;21.652;2023-03-29T09:09:04;4.38;;;1.45;;
69161;SDS011;56269;51.738;21.652;2023-03-29T09:11:51;9.80;;;2.15;;
69161;SDS011;56269;51.738;21.652;2023-03-29T09:18:10;4.57;;;1.33;;
69161;SDS011;56269;51.738;21.652;2023-03-29T09:22:54;4.28;;;1.35;;
69161;SDS011;56269;51.738;21.652;2023-03-29T09:28:05;2.53;;;0.90;;
69161;SDS011;56269;51.738;21.652;2023-03-29T09:33:12;4.65;;;1.40;;
69161;SDS011;56269;51.738;21.652;2023-03-29T09:35:54;4.25;;;1.48;;
69161;SDS011;56269;51.738;21.652;2023-03-29T09:38:38;2.90;;;0.93;;
69161;SDS011;56269;51.738;21.652;2023-03-29T09:41:13;2.20;;;0.80;;
69161;SDS011;56269;51.738;21.652;2023-03-29T09:43:46;4.18;;;1.30;;
69161;SDS011;56269;51.738;21.652;2023-03-29T09:46:18;3.65;;;1.10;;
69161;SDS011;56269;51.738;21.652;2023-03-29T09:53:29;4.05;;;1.02;;
69161;SDS011;56269;51.738;21.652;2023-03-29T09:56:11;4.50;;;1.03;;
69161;SDS011;56269;51.738;21.652;2023-03-29T09:59:14;5.38;;;1.27;;
69161;SDS011;56269;51.738;21.652;2023-03-29T10:06:26;3.53;;;0.90;;
69161;SDS011;56269;51.738;21.652;2023-03-29T10:13:34;3.07;;;1.10;;
69161;SDS011;56269;51.738;21.652;2023-03-29T10:17:39;3.38;;;1.10;;
69161;SDS011;56269;51.738;21.652;2023-03-29T10:20:18;3.65;;;1.10;;
69161;SDS011;56269;51.738;21.652;2023-03-29T10:22:48;4.25;;;1.33;;
69161;SDS011;56269;51.738;21.652;2023-03-29T10:25:24;4.00;;;1.17;;
69161;SDS011;56269;51.738;21.652;2023-03-29T10:27:53;2.93;;;1.00;;
69161;SDS011;56269;51.738;21.652;2023-03-29T10:30:42;2.65;;;0.95;;
69161;SDS011;56269;51.738;21.652;2023-03-29T10:33:15;4.40;;;1.20;;
69161;SDS011;56269;51.738;21.652;2023-03-29T10:35:44;3.53;;;1.10;;
69161;SDS011;56269;51.738;21.652;2023-03-29T10:38:12;2.47;;;0.90;;
69161;SDS011;56269;51.738;21.652;2023-03-29T10:40:42;3.43;;;1.00;;
69161;SDS011;56269;51.738;21.652;2023-03-29T10:45:39;3.85;;;1.20;;
69161;SDS011;56269;51.738;21.652;2023-03-29T10:48:13;2.40;;;0.90;;
69161;SDS011;56269;51.738;21.652;2023-03-29T10:50:41;2.50;;;0.90;;
69161;SDS011;56269;51.738;21.652;2023-03-29T10:53:22;4.43;;;1.60;;
69161;SDS011;56269;51.738;21.652;2023-03-29T10:56:07;4.13;;;1.02;;
69161;SDS011;56269;51.738;21.652;2023-03-29T11:07:53;3.43;;;1.20;;
69161;SDS011;56269;51.738;21.652;2023-03-29T11:16:52;4.75;;;1.33;;
69161;SDS011;56269;51.738;21.652;2023-03-29T11:19:41;5.50;;;1.30;;
69161;SDS011;56269;51.738;21.652;2023-03-29T11:25:34;5.85;;;1.85;;
69161;SDS011;56269;51.738;21.652;2023-03-29T11:28:33;3.17;;;1.10;;
69161;SDS011;56269;51.738;21.652;2023-03-29T11:31:17;3.25;;;1.00;;
69161;SDS011;56269;51.738;21.652;2023-03-29T11:42:37;5.68;;;1.58;;
69161;SDS011;56269;51.738;21.652;2023-03-29T11:45:15;4.43;;;1.40;;
69161;SDS011;56269;51.738;21.652;2023-03-29T11:47:49;8.02;;;1.85;;
69161;SDS011;56269;51.738;21.652;2023-03-29T11:50:18;3.00;;;1.03;;
69161;SDS011;56269;51.738;21.652;2023-03-29T11:52:58;5.03;;;1.45;;
69161;SDS011;56269;51.738;21.652;2023-03-29T11:55:36;3.63;;;1.10;;
69161;SDS011;56269;51.738;21.652;2023-03-29T11:58:06;5.00;;;1.83;;
69161;SDS011;56269;51.738;21.652;2023-03-29T12:03:32;5.87;;;1.57;;
69161;SDS011;56269;51.738;21.652;2023-03-29T12:06:24;7.43;;;2.17;;
69161;SDS011;56269;51.738;21.652;2023-03-29T12:10:20;4.47;;;1.17;;
69161;SDS011;56269;51.738;21.652;2023-03-29T12:16:45;4.97;;;1.42;;
69161;SDS011;56269;51.738;21.652;2023-03-29T12:19:52;3.10;;;1.20;;
69161;SDS011;56269;51.738;21.652;2023-03-29T12:22:43;2.80;;;0.93;;
69161;SDS011;56269;51.738;21.652;2023-03-29T12:25:20;3.10;;;1.10;;
69161;SDS011;56269;51.738;21.652;2023-03-29T12:27:57;4.38;;;1.45;;
69161;SDS011;56269;51.738;21.652;2023-03-29T12:38:56;3.25;;;1.00;;
69161;SDS011;56269;51.738;21.652;2023-03-29T12:41:23;3.20;;;1.08;;
69161;SDS011;56269;51.738;21.652;2023-03-29T12:43:49;6.45;;;1.38;;
69161;SDS011;56269;51.738;21.652;2023-03-29T12:46:17;4.07;;;1.30;;
69161;SDS011;56269;51.738;21.652;2023-03-29T12:48:48;4.88;;;1.30;;
69161;SDS011;56269;51.738;21.652;2023-03-29T12:51:19;6.13;;;1.70;;
69161;SDS011;56269;51.738;21.652;2023-03-29T12:53:49;4.20;;;1.30;;
69161;SDS011;56269;51.738;21.652;2023-03-29T12:56:20;4.38;;;1.38;;
69161;SDS011;56269;51.738;21.652;2023-03-29T12:58:51;4.60;;;1.70;;
69161;SDS011;56269;51.738;21.652;2023-03-29T13:03:50;4.45;;;1.60;;
69161;SDS011;56269;51.738;21.652;2023-03-29T13:06:49;5.80;;;1.55;;
69161;SDS011;56269;51.738;21.652;2023-03-29T13:09:28;4.63;;;1.65;;
69161;SDS011;56269;51.738;21.652;2023-03-29T13:12:12;3.10;;;1.17;;
69161;SDS011;56269;51.738;21.652;2023-03-29T13:14:48;6.53;;;1.90;;
69161;SDS011;56269;51.738;21.652;2023-03-29T13:17:30;5.28;;;1.70;;
69161;SDS011;56269;51.738;21.652;2023-03-29T13:20:23;6.07;;;2.15;;
69161;SDS011;56269;51.738;21.652;2023-03-29T13:23:39;4.15;;;1.50;;
69161;SDS011;56269;51.738;21.652;2023-03-29T13:37:06;4.03;;;1.45;;
69161;SDS011;56269;51.738;21.652;2023-03-29T13:39:34;5.17;;;1.70;;
69161;SDS011;56269;51.738;21.652;2023-03-29T13:42:18;3.88;;;1.30;;
69161;SDS011;56269;51.738;21.652;2023-03-29T13:44:50;4.78;;;1.40;;
69161;SDS011;56269;51.738;21.652;2023-03-29T13:50:13;3.78;;;1.20;;
69161;SDS011;56269;51.738;21.652;2023-03-29T13:55:30;4.68;;;1.70;;
69161;SDS011;56269;51.738;21.652;2023-03-29T13:58:10;5.47;;;1.88;;
69161;SDS011;56269;51.738;21.652;2023-03-29T14:00:51;10.05;;;2.33;;
69161;SDS011;56269;51.738;21.652;2023-03-29T14:03:26;5.35;;;1.77;;
69161;SDS011;56269;51.738;21.652;2023-03-29T14:05:58;5.07;;;1.47;;
69161;SDS011;56269;51.738;21.652;2023-03-29T14:08:29;3.97;;;1.50;;
69161;SDS011;56269;51.738;21.652;2023-03-29T14:11:01;6.40;;;2.47;;
69161;SDS011;56269;51.738;21.652;2023-03-29T14:13:31;4.50;;;1.90;;
69161;SDS011;56269;51.738;21.652;2023-03-29T14:16:00;5.32;;;2.00;;
69161;SDS011;56269;51.738;21.652;2023-03-29T14:18:32;5.63;;;1.70;;
69161;SDS011;56269;51.738;21.652;2023-03-29T14:21:03;5.35;;;1.35;;
69161;SDS011;56269;51.738;21.652;2023-03-29T14:23:30;5.32;;;2.10;;
69161;SDS011;56269;51.738;21.652;2023-03-29T14:26:09;5.13;;;1.85;;
69161;SDS011;56269;51.738;21.652;2023-03-29T14:28:44;5.15;;;1.80;;
69161;SDS011;56269;51.738;21.652;2023-03-29T14:31:33;5.60;;;1.80;;
69161;SDS011;56269;51.738;21.652;2023-03-29T14:34:00;3.92;;;1.52;;
69161;SDS011;56269;51.738;21.652;2023-03-29T14:36:33;4.88;;;1.67;;
69161;SDS011;56269;51.738;21.652;2023-03-29T14:39:09;6.43;;;2.30;;
69161;SDS011;56269;51.738;21.652;2023-03-29T14:41:41;6.78;;;2.00;;
69161;SDS011;56269;51.738;21.652;2023-03-29T14:44:13;6.37;;;1.70;;
69161;SDS011;56269;51.738;21.652;2023-03-29T14:46:40;7.90;;;2.83;;
69161;SDS011;56269;51.738;21.652;2023-03-29T14:49:11;6.88;;;2.10;;
69161;SDS011;56269;51.738;21.652;2023-03-29T14:51:42;4.97;;;1.55;;
69161;SDS011;56269;51.738;21.652;2023-03-29T14:54:13;5.00;;;1.60;;
69161;SDS011;56269;51.738;21.652;2023-03-29T14:56:47;6.40;;;2.20;;
69161;SDS011;56269;51.738;21.652;2023-03-29T15:01:59;6.80;;;2.22;;
69161;SDS011;56269;51.738;21.652;2023-03-29T15:04:32;8.68;;;2.70;;
69161;SDS011;56269;51.738;21.652;2023-03-29T15:07:01;7.10;;;2.08;;
69161;SDS011;56269;51.738;21.652;2023-03-29T15:09:31;8.73;;;2.70;;
69161;SDS011;56269;51.738;21.652;2023-03-29T15:12:00;8.20;;;2.70;;
69161;SDS011;56269;51.738;21.652;2023-03-29T15:14:28;9.15;;;2.90;;
69161;SDS011;56269;51.738;21.652;2023-03-29T15:17:03;7.05;;;2.65;;
69161;SDS011;56269;51.738;21.652;2023-03-29T15:19:38;4.55;;;1.65;;
69161;SDS011;56269;51.738;21.652;2023-03-29T15:22:04;7.47;;;2.37;;
69161;SDS011;56269;51.738;21.652;2023-03-29T15:24:35;5.60;;;1.98;;
69161;SDS011;56269;51.738;21.652;2023-03-29T15:27:18;6.85;;;2.10;;
69161;SDS011;56269;51.738;21.652;2023-03-29T15:29:45;5.15;;;1.90;;
69161;SDS011;56269;51.738;21.652;2023-03-29T15:32:19;4.80;;;1.70;;
69161;SDS011;56269;51.738;21.652;2023-03-29T15:35:03;6.33;;;2.10;;
69161;SDS011;56269;51.738;21.652;2023-03-29T15:37:32;5.57;;;1.70;;
69161;SDS011;56269;51.738;21.652;2023-03-29T15:39:58;7.50;;;2.50;;
69161;SDS011;56269;51.738;21.652;2023-03-29T15:42:25;7.20;;;2.50;;
69161;SDS011;56269;51.738;21.652;2023-03-29T15:44:52;6.60;;;2.50;;
69161;SDS011;56269;51.738;21.652;2023-03-29T15:47:21;5.33;;;1.80;;
69161;SDS011;56269;51.738;21.652;2023-03-29T15:49:47;6.75;;;2.10;;
69161;SDS011;56269;51.738;21.652;2023-03-29T15:52:14;7.50;;;2.38;;
69161;SDS011;56269;51.738;21.652;2023-03-29T15:54:41;7.28;;;2.50;;
69161;SDS011;56269;51.738;21.652;2023-03-29T15:57:11;7.43;;;2.15;;
69161;SDS011;56269;51.738;21.652;2023-03-29T15:59:39;7.60;;;2.40;;
69161;SDS011;56269;51.738;21.652;2023-03-29T16:02:10;5.80;;;1.98;;
69161;SDS011;56269;51.738;21.652;2023-03-29T16:04:40;7.70;;;2.33;;
69161;SDS011;56269;51.738;21.652;2023-03-29T16:07:09;7.60;;;2.38;;
69161;SDS011;56269;51.738;21.652;2023-03-29T16:09:39;7.50;;;2.30;;
69161;SDS011;56269;51.738;21.652;2023-03-29T16:12:06;8.03;;;2.40;;
69161;SDS011;56269;51.738;21.652;2023-03-29T16:14:32;6.13;;;2.10;;
69161;SDS011;56269;51.738;21.652;2023-03-29T16:16:59;7.30;;;2.40;;
69161;SDS011;56269;51.738;21.652;2023-03-29T16:19:27;8.27;;;2.38;;
69161;SDS011;56269;51.738;21.652;2023-03-29T16:21:56;6.70;;;2.30;;
69161;SDS011;56269;51.738;21.652;2023-03-29T16:24:24;6.00;;;2.10;;
69161;SDS011;56269;51.738;21.652;2023-03-29T16:26:52;6.88;;;2.08;;
69161;SDS011;56269;51.738;21.652;2023-03-29T16:29:19;8.02;;;2.58;;
69161;SDS011;56269;51.738;21.652;2023-03-29T16:31:46;7.93;;;2.45;;
69161;SDS011;56269;51.738;21.652;2023-03-29T16:34:13;7.20;;;2.30;;
69161;SDS011;56269;51.738;21.652;2023-03-29T16:36:49;6.40;;;2.20;;
69161;SDS011;56269;51.738;21.652;2023-03-29T16:39:17;6.45;;;2.08;;
69161;SDS011;56269;51.738;21.652;2023-03-29T16:41:50;5.82;;;2.17;;
69161;SDS011;56269;51.738;21.652;2023-03-29T16:44:18;5.93;;;1.80;;
69161;SDS011;56269;51.738;21.652;2023-03-29T16:46:47;6.10;;;1.92;;
69161;SDS011;56269;51.738;21.652;2023-03-29T16:49:13;7.03;;;2.00;;
69161;SDS011;56269;51.738;21.652;2023-03-29T16:51:44;7.18;;;2.10;;
69161;SDS011;56269;51.738;21.652;2023-03-29T16:54:12;7.15;;;2.20;;
69161;SDS011;56269;51.738;21.652;2023-03-29T16:56:39;5.05;;;1.80;;
69161;SDS011;56269;51.738;21.652;2023-03-29T16:59:05;6.57;;;2.13;;
69161;SDS011;56269;51.738;21.652;2023-03-29T17:01:32;5.77;;;1.87;;